createdAt,value
2022-09-17T00:00:43.080Z,15.45
2022-09-17T00:03:10.003Z,13.05
2022-09-17T00:05:40.110Z,10.63
2022-09-17T00:08:07.589Z,12.13
2022-09-17T00:10:38.550Z,14.25
2022-09-17T00:13:05.985Z,11.27
2022-09-17T00:15:32.441Z,15.85
2022-09-17T00:17:59.113Z,18.42
2022-09-17T00:20:26.323Z,16.35
2022-09-17T00:22:53.780Z,16.77
2022-09-17T00:25:20.693Z,12.45
2022-09-17T00:27:47.144Z,16.50
2022-09-17T00:30:13.812Z,13.05
2022-09-17T00:32:40.205Z,18.48
2022-09-17T00:35:07.194Z,15.35
2022-09-17T00:37:33.579Z,14.68
2022-09-17T00:40:00.054Z,17.27
2022-09-17T00:42:26.544Z,19.88
2022-09-17T00:44:55.160Z,12.27
2022-09-17T00:47:34.341Z,13.70
2022-09-17T00:50:08.127Z,12.52
2022-09-17T00:52:41.569Z,14.93
2022-09-17T00:55:13.487Z,14.25
2022-09-17T00:57:40.924Z,15.90
2022-09-17T01:00:09.257Z,17.17
2022-09-17T01:02:35.986Z,14.43
2022-09-17T01:05:02.480Z,20.83
2022-09-17T01:07:47.937Z,17.17
2022-09-17T01:10:20.913Z,18.45
2022-09-17T01:13:03.365Z,18.05
2022-09-17T01:15:47.966Z,17.15
2022-09-17T01:18:22.763Z,19.58
2022-09-17T01:20:55.218Z,21.90
2022-09-17T01:23:55.503Z,15.80
2022-09-17T01:26:32.484Z,16.63
2022-09-17T01:29:43.545Z,15.35
2022-09-17T01:32:15.630Z,17.73
2022-09-17T01:34:52.375Z,14.13
2022-09-17T01:37:30.711Z,18.13
2022-09-17T01:40:32.354Z,15.70
2022-09-17T01:43:09.526Z,17.25
2022-09-17T01:45:47.326Z,24.35
2022-09-17T01:48:21.587Z,15.23
2022-09-17T01:51:11.128Z,18.27
2022-09-17T01:53:54.088Z,17.58
2022-09-17T01:56:24.855Z,19.75
2022-09-17T01:59:02.525Z,15.68
2022-09-17T02:01:32.692Z,15.65
2022-09-17T02:04:09.550Z,17.98
2022-09-17T02:06:42.384Z,18.95
2022-09-17T02:09:18.424Z,18.50
2022-09-17T02:11:51.000Z,20.52
2022-09-17T02:16:52.483Z,19.25
2022-09-17T02:19:22.842Z,20.63
2022-09-17T02:22:00.818Z,22.63
2022-09-17T02:24:37.810Z,16.77
2022-09-17T02:27:07.858Z,18.83
2022-09-17T02:29:37.181Z,18.10
2022-09-17T02:32:03.996Z,22.45
2022-09-17T02:34:30.936Z,20.45
2022-09-17T02:36:59.452Z,18.85
2022-09-17T02:39:26.425Z,19.58
2022-09-17T02:42:22.502Z,17.63
2022-09-17T02:45:04.128Z,24.55
2022-09-17T02:47:48.783Z,20.00
2022-09-17T02:50:37.021Z,21.67
2022-09-17T02:53:22.179Z,18.85
2022-09-17T02:56:04.142Z,26.05
2022-09-17T02:58:53.746Z,17.40
2022-09-17T03:01:45.217Z,22.85
2022-09-17T03:04:15.479Z,20.25
2022-09-17T03:06:43.989Z,24.60
2022-09-17T03:09:10.444Z,16.88
2022-09-17T03:11:37.070Z,17.38
2022-09-17T03:14:04.479Z,22.15
2022-09-17T03:16:30.930Z,24.05
2022-09-17T03:18:57.317Z,17.90
2022-09-17T03:21:23.808Z,18.40
2022-09-17T03:23:50.220Z,26.42
2022-09-17T03:26:16.713Z,20.50
2022-09-17T03:28:43.077Z,23.45
2022-09-17T03:31:09.568Z,17.92
2022-09-17T03:33:36.059Z,24.33
2022-09-17T03:36:02.500Z,21.52
2022-09-17T03:38:28.940Z,20.33
2022-09-17T03:41:02.834Z,20.92
2022-09-17T03:43:29.585Z,19.50
2022-09-17T03:45:56.245Z,17.45
2022-09-17T03:48:23.088Z,20.88
2022-09-17T03:50:49.648Z,23.58
2022-09-17T03:53:16.703Z,21.15
2022-09-17T03:55:43.093Z,21.15
2022-09-17T03:58:09.576Z,27.55
2022-09-17T04:00:38.849Z,21.38
2022-09-17T04:03:05.830Z,16.23
2022-09-17T04:05:32.360Z,18.02
2022-09-17T04:07:58.747Z,18.73
2022-09-17T04:10:25.351Z,16.73
2022-09-17T04:12:51.723Z,17.67
2022-09-17T04:15:18.117Z,20.40
2022-09-17T04:17:44.682Z,20.02
2022-09-17T04:20:11.095Z,20.27
2022-09-17T04:22:37.627Z,16.38
2022-09-17T04:25:04.203Z,23.38
2022-09-17T04:27:30.727Z,16.13
2022-09-17T04:29:57.141Z,19.08
2022-09-17T04:32:23.532Z,19.00
2022-09-17T04:34:49.948Z,17.20
2022-09-17T04:37:16.902Z,27.27
2022-09-17T04:39:43.263Z,19.20
2022-09-17T04:42:09.672Z,19.73
2022-09-17T04:44:36.086Z,19.75
2022-09-17T04:47:02.467Z,17.52
2022-09-17T04:49:30.943Z,18.92
2022-09-17T04:51:57.593Z,15.85
2022-09-17T04:54:24.235Z,18.55
2022-09-17T04:56:50.755Z,17.98
2022-09-17T04:59:17.181Z,18.15
2022-09-17T05:01:43.805Z,18.73
2022-09-17T05:04:10.363Z,15.02
2022-09-17T05:06:36.910Z,11.48
2022-09-17T05:09:03.475Z,17.45
2022-09-17T05:11:29.880Z,17.88
2022-09-17T05:13:56.397Z,14.00
2022-09-17T05:16:22.986Z,14.32
2022-09-17T05:18:51.579Z,14.60
2022-09-17T05:21:18.739Z,15.57
2022-09-17T05:23:45.189Z,16.92
2022-09-17T05:26:11.609Z,19.65
2022-09-17T05:28:38.079Z,17.52
2022-09-17T05:31:04.591Z,19.00
2022-09-17T05:33:31.181Z,17.70
2022-09-17T05:35:57.613Z,17.00
2022-09-17T05:38:24.147Z,22.02
2022-09-17T05:40:50.596Z,18.75
2022-09-17T05:43:17.194Z,16.73
2022-09-17T05:45:44.102Z,18.17
2022-09-17T05:48:13.405Z,21.27
2022-09-17T05:50:40.198Z,18.17
2022-09-17T05:53:10.192Z,16.63
2022-09-17T05:55:36.747Z,18.75
2022-09-17T05:58:14.093Z,20.05
2022-09-17T06:00:42.539Z,22.98
2022-09-17T06:03:13.510Z,19.00
2022-09-17T06:05:40.193Z,17.77
2022-09-17T06:08:07.034Z,15.38
2022-09-17T06:10:37.051Z,17.10
2022-09-17T06:13:03.548Z,16.38
2022-09-17T06:15:30.147Z,17.85
2022-09-17T06:17:56.565Z,26.80
2022-09-17T06:20:23.017Z,12.35
2022-09-17T06:22:49.386Z,16.60
2022-09-17T06:25:15.932Z,12.77
2022-09-17T06:27:42.462Z,19.48
2022-09-17T06:30:11.005Z,15.27
2022-09-17T06:32:37.417Z,16.42
2022-09-17T06:35:03.897Z,12.95
2022-09-17T06:37:32.370Z,14.55
2022-09-17T06:39:59.422Z,16.25
2022-09-17T06:42:29.263Z,12.50
2022-09-17T06:44:55.643Z,15.40
2022-09-17T06:47:24.433Z,15.90
2022-09-17T06:49:51.622Z,13.55
2022-09-17T06:52:17.975Z,16.83
2022-09-17T06:54:44.431Z,18.65
2022-09-17T06:57:10.811Z,14.38
2022-09-17T06:59:37.265Z,17.38
2022-09-17T07:02:03.781Z,16.88
2022-09-17T07:04:30.265Z,17.88
2022-09-17T07:06:56.735Z,13.57
2022-09-17T07:09:23.205Z,16.10
2022-09-17T07:11:49.574Z,12.93
2022-09-17T07:14:16.054Z,15.43
2022-09-17T07:16:42.474Z,10.00
2022-09-17T07:19:09.137Z,15.80
2022-09-17T07:21:35.731Z,19.02
2022-09-17T07:24:02.271Z,15.25
2022-09-17T07:26:28.754Z,10.40
2022-09-17T07:28:55.144Z,14.80
2022-09-17T07:31:21.608Z,10.57
2022-09-17T07:33:48.147Z,10.45
2022-09-17T07:36:17.668Z,12.93
2022-09-17T07:38:44.145Z,11.45
2022-09-17T07:41:15.506Z,10.07
2022-09-17T07:43:42.639Z,10.75
2022-09-17T07:46:13.962Z,10.40
2022-09-17T07:48:40.796Z,10.90
2022-09-17T07:51:07.198Z,9.38
2022-09-17T07:53:33.663Z,9.90
2022-09-17T07:56:00.746Z,10.75
2022-09-17T07:58:32.364Z,11.27
2022-09-17T08:01:06.861Z,14.07
2022-09-17T08:03:33.488Z,10.30
2022-09-17T08:06:08.287Z,11.82
2022-09-17T08:08:36.015Z,8.75
2022-09-17T08:11:03.831Z,12.38
2022-09-17T08:13:30.724Z,14.95
2022-09-17T08:16:06.503Z,10.60
2022-09-17T08:18:33.535Z,14.23
2022-09-17T08:21:00.851Z,13.70
2022-09-17T08:23:27.864Z,11.55
2022-09-17T08:25:55.531Z,7.82
2022-09-17T08:28:22.981Z,12.27
2022-09-17T08:30:50.395Z,14.00
2022-09-17T08:33:17.581Z,9.15
2022-09-17T08:35:54.171Z,12.48
2022-09-17T08:38:21.279Z,12.88
2022-09-17T08:41:18.086Z,15.05
2022-09-17T08:44:15.295Z,14.82
2022-09-17T08:46:47.406Z,11.00
2022-09-17T08:49:24.062Z,11.20
2022-09-17T08:52:03.365Z,10.43
2022-09-17T08:54:48.385Z,15.80
2022-09-17T08:57:39.299Z,13.07
2022-09-17T09:00:16.188Z,14.98
2022-09-17T09:03:05.155Z,12.10
2022-09-17T09:05:45.339Z,13.02
2022-09-17T09:08:37.013Z,11.30
2022-09-17T09:11:07.306Z,10.85
2022-09-17T09:13:38.665Z,7.97
2022-09-17T09:16:15.552Z,12.05
2022-09-17T09:18:42.302Z,12.00
2022-09-17T09:21:27.236Z,8.10
2022-09-17T09:23:58.993Z,9.48
2022-09-17T09:26:45.173Z,7.60
2022-09-17T09:29:29.845Z,11.82
2022-09-17T09:32:16.561Z,10.90
2022-09-17T09:34:43.900Z,9.23
2022-09-17T09:37:16.709Z,7.43
2022-09-17T09:39:46.216Z,10.90
2022-09-17T09:42:39.773Z,9.65
2022-09-17T09:45:18.250Z,9.63
2022-09-17T09:47:47.887Z,6.43
2022-09-17T09:50:48.412Z,8.68
2022-09-17T09:53:29.001Z,5.90
2022-09-17T09:56:16.199Z,6.57
2022-09-17T09:58:42.891Z,6.40
2022-09-17T10:01:20.305Z,8.55
2022-09-17T10:03:48.462Z,7.97
2022-09-17T10:06:15.402Z,7.55
2022-09-17T10:08:51.951Z,5.93
2022-09-17T10:11:26.615Z,7.03
2022-09-17T10:13:53.070Z,10.52
2022-09-17T10:16:21.769Z,7.30
2022-09-17T10:18:49.624Z,8.43
2022-09-17T10:21:26.599Z,6.82
2022-09-17T10:23:53.003Z,10.10
2022-09-17T10:26:22.579Z,6.70
2022-09-17T10:28:51.621Z,6.10
2022-09-17T10:31:18.824Z,8.70
2022-09-17T10:33:59.107Z,6.05
2022-09-17T10:36:45.133Z,7.95
2022-09-17T10:39:26.762Z,9.57
2022-09-17T10:41:58.643Z,8.27
2022-09-17T10:44:27.625Z,7.53
2022-09-17T10:46:55.768Z,5.57
2022-09-17T10:49:42.651Z,7.20
2022-09-17T10:52:12.801Z,7.38
2022-09-17T10:54:58.187Z,4.50
2022-09-17T10:58:00.789Z,8.52
2022-09-17T11:00:30.253Z,4.82
2022-09-17T11:03:21.569Z,5.20
2022-09-17T11:06:24.436Z,7.20
2022-09-17T11:09:19.532Z,6.15
2022-09-17T11:12:19.635Z,9.02
2022-09-17T11:15:03.557Z,6.25
2022-09-17T11:17:53.744Z,6.15
2022-09-17T11:21:03.480Z,7.95
2022-09-17T11:23:41.606Z,5.10
2022-09-17T11:26:16.650Z,6.03
2022-09-17T11:29:11.002Z,4.82
2022-09-17T11:31:46.307Z,8.27
2022-09-17T11:34:34.944Z,5.30
2022-09-17T11:37:10.491Z,5.85
2022-09-17T11:39:41.271Z,3.63
2022-09-17T11:42:12.518Z,5.00
2022-09-17T11:44:43.856Z,5.10
2022-09-17T11:47:23.746Z,7.50
2022-09-17T11:50:17.309Z,8.52
2022-09-17T11:52:46.469Z,8.63
2022-09-17T11:55:23.348Z,6.60
2022-09-17T11:57:52.953Z,5.30
2022-09-17T12:00:20.519Z,5.22
2022-09-17T12:03:01.775Z,4.25
2022-09-17T12:05:52.301Z,4.18
2022-09-17T12:08:39.943Z,6.07
2022-09-17T12:11:27.932Z,5.60
2022-09-17T12:13:57.084Z,5.45
2022-09-17T12:16:29.267Z,6.55
2022-09-17T12:19:16.426Z,5.93
2022-09-17T12:21:46.695Z,10.27
2022-09-17T12:24:23.557Z,5.70
2022-09-17T12:27:04.639Z,4.65
2022-09-17T12:30:00.596Z,8.80
2022-09-17T12:32:27.203Z,4.38
2022-09-17T12:35:12.323Z,4.18
2022-09-17T12:37:56.987Z,5.22
2022-09-17T12:40:42.672Z,3.80
2022-09-17T12:43:28.781Z,6.03
2022-09-17T12:46:16.967Z,7.47
2022-09-17T12:49:07.302Z,5.13
2022-09-17T12:51:48.703Z,4.93
2022-09-17T12:54:22.225Z,7.28
2022-09-17T12:57:01.432Z,8.52
2022-09-17T12:59:33.056Z,8.38
2022-09-17T13:02:11.536Z,4.43
2022-09-17T13:05:15.575Z,6.78
2022-09-17T13:08:10.203Z,9.90
2022-09-17T13:10:54.854Z,7.40
2022-09-17T13:13:27.256Z,9.35
2022-09-17T13:16:21.184Z,8.32
2022-09-17T13:19:17.243Z,8.57
2022-09-17T13:22:00.264Z,6.40
2022-09-17T13:26:55.325Z,6.00
2022-09-17T13:29:43.434Z,5.90
2022-09-17T13:32:10.071Z,4.45
2022-09-17T13:34:36.514Z,6.50
2022-09-17T13:37:18.128Z,7.57
2022-09-17T13:39:51.596Z,5.85
2022-09-17T13:42:29.582Z,5.18
2022-09-17T13:45:09.996Z,5.68
2022-09-17T13:47:56.562Z,5.38
2022-09-17T13:50:43.606Z,4.15
2022-09-17T13:53:16.009Z,4.65
2022-09-17T13:55:45.096Z,5.22
2022-09-17T13:58:23.604Z,7.95
2022-09-17T14:00:56.305Z,10.45
2022-09-17T14:03:28.857Z,4.07
2022-09-17T14:08:30.939Z,8.38
2022-09-17T14:10:59.657Z,9.65
2022-09-17T14:13:27.418Z,5.53
2022-09-17T14:15:56.146Z,5.35
2022-09-17T14:18:42.939Z,7.03
2022-09-17T14:21:09.420Z,6.68
2022-09-17T14:23:47.455Z,5.15
2022-09-17T14:26:26.059Z,5.72
2022-09-17T14:29:03.506Z,6.53
2022-09-17T14:31:36.034Z,7.00
2022-09-17T14:36:35.756Z,8.32
2022-09-17T14:39:02.997Z,4.28
2022-09-17T14:41:35.466Z,5.22
2022-09-17T14:44:14.874Z,9.90
2022-09-17T14:47:01.513Z,7.15
2022-09-17T14:49:34.528Z,6.70
2022-09-17T14:52:05.847Z,8.27
2022-09-17T14:54:36.254Z,10.38
2022-09-17T14:57:09.023Z,6.22
2022-09-17T14:59:42.939Z,7.82
2022-09-17T15:02:41.425Z,5.82
2022-09-17T15:05:39.305Z,8.10
2022-09-17T15:08:13.121Z,6.93
2022-09-17T15:10:48.048Z,6.38
2022-09-17T15:13:21.509Z,7.60
2022-09-17T15:15:58.489Z,8.93
2022-09-17T15:18:33.023Z,7.93
2022-09-17T15:21:00.894Z,9.60
2022-09-17T15:23:28.344Z,6.95
2022-09-17T15:25:56.844Z,5.05
2022-09-17T15:28:31.067Z,5.97
2022-09-17T15:30:57.525Z,7.95
2022-09-17T15:33:24.430Z,8.20
2022-09-17T15:36:07.798Z,6.10
2022-09-17T15:38:34.650Z,8.73
2022-09-17T15:41:20.676Z,9.13
2022-09-17T15:43:47.400Z,9.52
2022-09-17T15:46:26.833Z,9.35
2022-09-17T15:48:58.817Z,8.73
2022-09-17T15:51:37.532Z,8.02
2022-09-17T15:54:05.476Z,7.93
2022-09-17T15:56:36.991Z,8.18
2022-09-17T15:59:06.284Z,8.35
2022-09-17T16:01:32.646Z,9.25
2022-09-17T16:03:59.003Z,10.50
2022-09-17T16:06:25.434Z,6.40
2022-09-17T16:08:52.920Z,5.60
2022-09-17T16:11:21.974Z,4.57
2022-09-17T16:13:49.528Z,7.72
2022-09-17T16:16:18.495Z,9.32
2022-09-17T16:18:45.119Z,8.15
2022-09-17T16:21:13.123Z,6.63
2022-09-17T16:23:40.067Z,10.80
2022-09-17T16:26:10.789Z,7.22
2022-09-17T16:28:37.226Z,7.50
2022-09-17T16:31:03.691Z,10.10
2022-09-17T16:33:30.167Z,8.23
2022-09-17T16:35:57.682Z,6.18
2022-09-17T16:38:24.384Z,6.70
2022-09-17T16:40:51.723Z,6.70
2022-09-17T16:43:18.614Z,3.65
2022-09-17T16:45:58.625Z,6.18
2022-09-17T16:48:25.020Z,4.57
2022-09-17T16:50:51.394Z,6.65
2022-09-17T16:53:17.828Z,8.10
2022-09-17T16:55:44.203Z,5.68
2022-09-17T16:58:10.612Z,6.68
2022-09-17T17:00:37.355Z,6.15
2022-09-17T17:03:05.022Z,10.68
2022-09-17T17:05:32.368Z,7.28
2022-09-17T17:08:01.210Z,9.50
2022-09-17T17:10:29.668Z,4.68
2022-09-17T17:12:56.258Z,7.10
2022-09-17T17:15:23.597Z,9.13
2022-09-17T17:17:50.034Z,6.03
2022-09-17T17:20:16.821Z,8.70
2022-09-17T17:22:44.121Z,11.18
2022-09-17T17:25:12.171Z,10.68
2022-09-17T17:27:38.894Z,13.18
2022-09-17T17:30:07.131Z,6.10
2022-09-17T17:32:34.748Z,12.65
2022-09-17T17:35:01.328Z,8.20
2022-09-17T17:37:27.818Z,7.65
2022-09-17T17:39:54.669Z,9.32
2022-09-17T17:42:21.399Z,7.40
2022-09-17T17:44:47.810Z,8.50
2022-09-17T17:47:14.444Z,9.88
2022-09-17T17:49:40.854Z,11.88
2022-09-17T17:52:07.248Z,12.23
2022-09-17T17:54:34.030Z,9.60
2022-09-17T17:57:00.426Z,10.75
2022-09-17T17:59:27.005Z,11.10
2022-09-17T18:01:53.430Z,9.98
2022-09-17T18:04:19.935Z,12.02
2022-09-17T18:06:48.076Z,9.98
2022-09-17T18:09:17.713Z,9.18
2022-09-17T18:11:44.135Z,8.88
2022-09-17T18:14:12.583Z,11.50
2022-09-17T18:16:39.167Z,13.65
2022-09-17T18:19:05.814Z,12.80
2022-09-17T18:21:32.359Z,9.68
2022-09-17T18:23:58.986Z,9.32
2022-09-17T18:26:27.058Z,10.02
2022-09-17T18:28:53.668Z,9.35
2022-09-17T18:31:27.735Z,7.60
2022-09-17T18:34:05.070Z,9.05
2022-09-17T18:36:33.993Z,8.00
2022-09-17T18:39:53.327Z,9.57
2022-09-17T18:41:48.333Z,12.02
2022-09-17T18:44:15.032Z,11.15
2022-09-17T18:46:42.573Z,8.68
2022-09-17T18:49:09.122Z,9.57
2022-09-17T18:51:35.479Z,9.88
2022-09-17T18:54:03.114Z,8.57
2022-09-17T18:56:32.391Z,13.73
2022-09-17T18:59:03.253Z,9.23
2022-09-17T19:01:32.218Z,12.77
2022-09-17T19:03:59.145Z,14.35
2022-09-17T19:06:26.815Z,14.05
2022-09-17T19:08:55.509Z,12.30
2022-09-17T19:11:21.905Z,15.18
2022-09-17T19:13:51.245Z,9.00
2022-09-17T19:16:18.060Z,10.63
2022-09-17T19:18:44.793Z,10.30
2022-09-17T19:21:15.162Z,9.98
2022-09-17T19:23:49.459Z,13.77
2022-09-17T19:26:18.783Z,10.20
2022-09-17T19:28:45.392Z,12.15
2022-09-17T19:31:14.229Z,11.40
2022-09-17T19:33:40.708Z,10.80
2022-09-17T19:36:10.620Z,7.22
2022-09-17T19:38:37.438Z,7.90
2022-09-17T19:41:10.043Z,9.70
2022-09-17T19:46:05.629Z,7.15
2022-09-17T19:48:32.635Z,9.48
2022-09-17T19:50:59.119Z,8.70
2022-09-17T19:53:25.538Z,7.50
2022-09-17T19:55:52.013Z,11.02
2022-09-17T19:58:18.475Z,9.20
2022-09-17T20:00:44.843Z,11.70
2022-09-17T20:03:11.298Z,8.57
2022-09-17T20:05:37.855Z,11.85
2022-09-17T20:08:05.290Z,8.07
2022-09-17T20:10:36.339Z,6.60
2022-09-17T20:13:03.221Z,5.35
2022-09-17T20:15:29.731Z,9.30
2022-09-17T20:17:56.101Z,7.95
2022-09-17T20:20:28.202Z,5.57
2022-09-17T20:22:55.538Z,5.65
2022-09-17T20:25:24.009Z,6.63
2022-09-17T20:27:50.555Z,6.75
2022-09-17T20:30:17.000Z,5.70
2022-09-17T20:32:43.620Z,9.95
2022-09-17T20:35:10.011Z,8.80
2022-09-17T20:38:32.925Z,8.70
2022-09-17T20:40:22.793Z,9.23
2022-09-17T20:42:49.295Z,5.82
2022-09-17T20:45:15.696Z,6.78
2022-09-17T20:47:42.260Z,6.65
2022-09-17T20:50:08.708Z,9.07
2022-09-17T20:52:35.098Z,9.73
2022-09-17T20:55:01.530Z,7.95
2022-09-17T20:57:30.710Z,9.35
2022-09-17T21:00:00.751Z,11.63
2022-09-17T21:02:27.512Z,7.95
2022-09-17T21:04:54.077Z,9.98
2022-09-17T21:07:20.586Z,9.15
2022-09-17T21:09:47.304Z,7.15
2022-09-17T21:12:13.772Z,10.75
2022-09-17T21:14:40.174Z,10.05
2022-09-17T21:17:06.648Z,8.57
2022-09-17T21:19:33.166Z,8.85
2022-09-17T21:21:59.587Z,6.70
2022-09-17T21:24:26.144Z,9.75
2022-09-17T21:26:54.040Z,7.93
2022-09-17T21:29:20.830Z,6.18
2022-09-17T21:31:47.349Z,10.38
2022-09-17T21:34:14.267Z,9.13
2022-09-17T21:36:41.885Z,10.52
2022-09-17T21:39:14.486Z,9.00
2022-09-17T21:44:11.018Z,10.18
2022-09-17T21:46:38.216Z,9.05
2022-09-17T21:49:05.160Z,6.68
2022-09-17T21:51:38.827Z,9.27
2022-09-17T21:54:13.291Z,8.40
2022-09-17T21:56:39.678Z,6.47
2022-09-17T21:59:07.825Z,6.03
2022-09-17T22:01:40.877Z,10.35
2022-09-17T22:04:09.400Z,8.63
2022-09-17T22:06:36.080Z,9.00
2022-09-17T22:09:03.973Z,11.38
2022-09-17T22:11:35.548Z,8.75
2022-09-17T22:14:05.304Z,7.88
2022-09-17T22:16:33.413Z,7.78
2022-09-17T22:19:00.084Z,9.13
2022-09-17T22:21:27.775Z,8.88
2022-09-17T22:23:57.393Z,11.27
2022-09-17T22:26:25.260Z,13.10
2022-09-17T22:28:52.335Z,7.53
2022-09-17T22:31:19.188Z,10.18
2022-09-17T22:33:47.504Z,6.57
2022-09-17T22:36:19.247Z,11.52
2022-09-17T22:38:50.086Z,11.73
2022-09-17T22:41:20.860Z,9.55
2022-09-17T22:43:47.792Z,10.82
2022-09-17T22:46:22.691Z,11.68
2022-09-17T22:48:49.227Z,11.73
2022-09-17T22:51:16.070Z,15.15
2022-09-17T22:53:42.954Z,7.80
2022-09-17T22:56:11.901Z,8.10
2022-09-17T22:58:38.681Z,9.98
2022-09-17T23:01:07.375Z,8.43
2022-09-17T23:03:34.214Z,11.15
2022-09-17T23:06:02.017Z,10.80
2022-09-17T23:08:28.908Z,9.10
2022-09-17T23:10:55.701Z,8.43
2022-09-17T23:13:22.602Z,12.05
2022-09-17T23:15:49.173Z,10.32
2022-09-17T23:18:15.911Z,11.82
2022-09-17T23:20:42.456Z,6.72
2022-09-17T23:23:08.943Z,10.65
2022-09-17T23:25:35.428Z,6.90
2022-09-17T23:28:02.054Z,9.23
2022-09-17T23:30:28.791Z,8.30
2022-09-17T23:32:56.296Z,10.32
2022-09-17T23:35:23.751Z,6.55
2022-09-17T23:37:51.072Z,7.97
2022-09-17T23:40:18.387Z,8.90
2022-09-17T23:42:44.934Z,8.80
2022-09-17T23:45:11.461Z,10.77
2022-09-17T23:47:38.122Z,10.10
2022-09-17T23:50:04.960Z,8.55
2022-09-17T23:52:31.630Z,10.02
2022-09-17T23:54:58.655Z,8.20
2022-09-17T23:57:25.629Z,10.00
2022-09-17T23:59:52.100Z,10.95
